OPLA/LHE METAR and TAF weather

Enter ICAO airport designator
Station Type Date Time Source
OPLA METAR 2019/05/26 00:55 UTC NOAA

OPLA 260055Z 23006KT 4000 FU NSC 24/15 Q1003 NOSIG RMK A29.62


Station Type Date Time Source
OPLA Decoded METAR 2019/05/26 00:55 UTC NOAA

Lahore Airport, Pakistan (OPLA) 31-31N 074-24E 217M
May 25, 2019 - 08:55 PM EDT / 2019.05.26 0055 UTC
Wind: from the SW (230 degrees) at 7 MPH (6 KT):0
Visibility: 2 mile(s):0
Weather: smoke
Temperature: 75 F (24 C)
Dew Point: 59 F (15 C)
Relative Humidity: 57%
Pressure (altimeter): 29.62 in. Hg (1003 hPa)
ob: OPLA 260055Z 23006KT 4000 FU NSC 24/15 Q1003 NOSIG RMK A29.62
cycle: 1

Station Type Date Time Source
OPLA TAF 2019/05/25 18:09 UTC NOAA

TAF TAF OPLA 251545Z 2518/2624 29006KT 4000 HZ NSC TX35/2610Z TN25/2600Z PROB30
TEMPO 2608/2613 32015G25KT

Example: see airport list